Skip to main content.
Our real time weather data display below is updated continuously via our 24/7 live data feed.
 TIME   TEMPERATURE   WINDSPEED   DIRECTION   HUMIDITY   BAROMETER   RAINFALL 
10:30 25.0°C (77.0°F) 3.7 kmh (2.3 mph) NNW 47% 1018.4hPa (30.07 inHg) 0.0mm (0.00 in.)
9:21 22.3°C (72.1 °F) 0.0 kmh (0.0 mph) NNW 73% 1018.0hPa (30.06 inHg) 0.0mm (0.00 in.)
8:15 19.9°C (67.8 °F) 0.0 kmh (0.0 mph) NNW 95% 1017.6hPa (30.05 inHg) 0.0mm (0.00 in.)
7:15 18.1°C (64.6 °F) 0.0 kmh (0.0 mph) NNW 97% 1017.3hPa (30.04 inHg) 0.0mm (0.00 in.)
6:15 17.0°C (62.6 °F) 0.0 kmh (0.0 mph) NNW 97% 1016.8hPa (30.03 inHg) 0.0mm (0.00 in.)
5:15 17.1°C (62.8 °F) 3.7 kmh (2.3 mph) NW 94% 1016.3hPa (30.01 inHg) 0.0mm (0.00 in.)
4:15 16.9°C (62.4 °F) 7.4 kmh (4.6 mph) W 94% 1016.1hPa (30.01 inHg) 0.0mm (0.00 in.)
3:15 17.2°C (63.0 °F) 0.0 kmh (0.0 mph) WSW 93% 1016.2hPa (30.01 inHg) 0.0mm (0.00 in.)
2:15 17.3°C (63.1 °F) 1.9 kmh (1.2 mph) WSW 92% 1016.3hPa (30.01 inHg) 0.0mm (0.00 in.)
1:15 17.3°C (63.1 °F) 0.0 kmh (0.0 mph) WSW 92% 1016.7hPa (30.02 inHg) 0.0mm (0.00 in.)
12:15 17.6°C (63.7 °F) 3.7 kmh (2.3 mph) WSW 90% 1017.0hPa (30.03 inHg) 0.0mm (0.00 in.)
11:15 17.6°C (63.7 °F) 1.9 kmh (1.2 mph) WSW 89% 1017.2hPa (30.04 inHg) 0.0mm (0.00 in.)
10:15 18.2°C (64.8 °F) 0.0 kmh (0.0 mph) N 82% 1017.2hPa (30.04 inHg) 0.0mm (0.00 in.)
9:15 18.4°C (65.1 °F) 0.0 kmh (0.0 mph) N 79% 1017.0hPa (30.03 inHg) 0.0mm (0.00 in.)
8:15 18.7°C (65.7 °F) 5.6 kmh (3.5 mph) N 78% 1016.5hPa (30.02 inHg) 0.0mm (0.00 in.)
7:15 19.4°C (66.9 °F) 0.0 kmh (0.0 mph) NW 73% 1016.3hPa (30.01 inHg) 0.0mm (0.00 in.)
6:15 21.6°C (70.9 °F) 3.7 kmh (2.3 mph) WSW 61% 1016.2hPa (30.01 inHg) 0.0mm (0.00 in.)
5:15 23.9°C (75.0 °F) 9.3 kmh (5.8 mph) WNW 51% 1016.0hPa (30.00 inHg) 0.0mm (0.00 in.)
4:15 24.0°C (75.2 °F) 5.6 kmh (3.5 mph) SW 54% 1016.2hPa (30.01 inHg) 0.0mm (0.00 in.)
3:15 23.2°C (73.8 °F) 14.8 kmh (9.2 mph) NNW 50% 1016.6hPa (30.02 inHg) 0.0mm (0.00 in.)
2:15 24.5°C (76.1 °F) 3.7 kmh (2.3 mph) NNW 53% 1016.8hPa (30.03 inHg) 0.0mm (0.00 in.)
1:15 22.9°C (73.2 °F) 14.8 kmh (9.2 mph) NNW 56% 1017.2hPa (30.04 inHg) 0.0mm (0.00 in.)
12:15 22.9°C (73.2 °F) 14.8 kmh (9.2 mph) N 51% 1017.5hPa (30.05 inHg) 0.0mm (0.00 in.)
11:15 21.9°C (71.4 °F) 9.3 kmh (5.8 mph) NNW 56% 1017.8hPa (30.06 inHg) 0.0mm (0.00 in.)